createdAt,value
2016-09-10T00:00:38.580Z,13.83
2016-09-10T00:01:38.563Z,13.88
2016-09-10T00:02:38.608Z,13.81
2016-09-10T00:03:38.569Z,13.8
2016-09-10T00:04:38.709Z,13.84
2016-09-10T00:05:38.547Z,13.74
2016-09-10T00:06:38.555Z,13.76
2016-09-10T00:07:38.547Z,13.83
2016-09-10T00:08:38.591Z,13.83
2016-09-10T00:09:38.560Z,13.77
2016-09-10T00:10:38.744Z,13.8
2016-09-10T00:11:38.689Z,13.8
2016-09-10T00:12:39.328Z,13.71
2016-09-10T00:13:38.654Z,13.71
2016-09-10T00:14:39.015Z,13.69
2016-09-10T00:15:38.639Z,13.71
2016-09-10T00:16:38.638Z,13.52
2016-09-10T00:17:38.719Z,13.61
2016-09-10T00:18:38.684Z,13.52
2016-09-10T00:19:38.918Z,13.54
2016-09-10T00:20:38.670Z,13.47
2016-09-10T00:21:38.628Z,13.43
2016-09-10T00:22:38.779Z,13.41
2016-09-10T00:23:38.640Z,13.44
2016-09-10T00:24:38.634Z,13.4
2016-09-10T00:25:38.922Z,13.33
2016-09-10T00:26:39.296Z,13.43
2016-09-10T00:27:39.721Z,13.51
2016-09-10T00:28:38.928Z,13.29
2016-09-10T00:29:38.655Z,13.38
2016-09-10T00:30:38.672Z,13.32
2016-09-10T00:31:38.687Z,13.46
2016-09-10T00:32:38.701Z,13.41
2016-09-10T00:33:38.753Z,13.56
2016-09-10T00:34:38.796Z,13.46
2016-09-10T00:35:39.044Z,13.4
2016-09-10T00:36:38.864Z,13.52
2016-09-10T00:37:38.639Z,13.44
2016-09-10T00:38:38.818Z,13.37
2016-09-10T00:39:38.671Z,13.33
2016-09-10T00:40:39.062Z,13.3
2016-09-10T00:41:38.967Z,13.46
2016-09-10T00:42:38.685Z,13.36
2016-09-10T00:43:38.820Z,13.38
2016-09-10T00:44:38.818Z,13.32
2016-09-10T00:45:40.112Z,13.3
2016-09-10T00:46:39.243Z,13.29
2016-09-10T00:47:39.237Z,13.27
2016-09-10T00:48:39.300Z,13.29
2016-09-10T00:49:39.338Z,13.22
2016-09-10T00:50:39.287Z,13.17
2016-09-10T00:51:38.754Z,13.17
2016-09-10T00:52:39.351Z,13.15
2016-09-10T00:53:38.680Z,13.17
2016-09-10T00:54:38.721Z,13.2
2016-09-10T00:55:38.656Z,13.2
2016-09-10T00:56:38.828Z,13.21
2016-09-10T00:57:38.655Z,13.07
2016-09-10T00:58:38.818Z,13.11
2016-09-10T00:59:38.657Z,13.11
2016-09-10T01:00:38.663Z,13.09
2016-09-10T01:01:38.680Z,13.22
2016-09-10T01:02:39.122Z,13
2016-09-10T01:03:38.694Z,13.09
2016-09-10T01:04:38.888Z,13.06
2016-09-10T01:05:38.770Z,12.99
2016-09-10T01:06:38.842Z,13.06
2016-09-10T01:07:38.706Z,13.04
2016-09-10T01:08:38.785Z,13.02
2016-09-10T01:09:38.706Z,13.03
2016-09-10T01:10:38.734Z,13.09
2016-09-10T01:11:38.683Z,13.11
2016-09-10T01:12:38.980Z,13.03
2016-09-10T01:13:39.206Z,13.02
2016-09-10T01:14:38.676Z,12.92
2016-09-10T01:15:38.656Z,12.82
2016-09-10T01:16:38.752Z,12.97
2016-09-10T01:17:39.036Z,12.95
2016-09-10T01:18:38.791Z,12.95
2016-09-10T01:19:38.785Z,13.11
2016-09-10T01:20:38.769Z,13.02
2016-09-10T01:21:38.864Z,13.07
2016-09-10T01:22:39.062Z,12.96
2016-09-10T01:23:38.799Z,13.11
2016-09-10T01:24:38.913Z,13.02
2016-09-10T01:25:38.866Z,12.89
2016-09-10T01:26:38.882Z,12.96
2016-09-10T01:27:39.475Z,12.96
2016-09-10T01:28:38.881Z,12.99
2016-09-10T01:29:38.902Z,12.96
2016-09-10T01:30:38.935Z,13
2016-09-10T01:31:38.703Z,12.88
2016-09-10T01:32:38.764Z,13
2016-09-10T01:33:38.808Z,12.99
2016-09-10T01:34:38.755Z,12.87
2016-09-10T01:35:38.697Z,12.79
2016-09-10T01:36:39.094Z,13
2016-09-10T01:37:38.702Z,12.93
2016-09-10T01:38:39.086Z,12.99
2016-09-10T01:39:38.817Z,13.02
2016-09-10T01:40:38.991Z,12.85
2016-09-10T01:41:38.799Z,12.92
2016-09-10T01:42:38.868Z,13
2016-09-10T01:43:38.858Z,12.92
2016-09-10T01:44:38.770Z,12.96
2016-09-10T01:45:38.721Z,12.92
2016-09-10T01:46:39.611Z,12.95
2016-09-10T01:47:39.729Z,12.95
2016-09-10T01:48:38.711Z,12.99
2016-09-10T01:49:39.332Z,12.89
2016-09-10T01:50:39.234Z,12.84
2016-09-10T01:51:39.246Z,13
2016-09-10T01:52:40.251Z,12.95
2016-09-10T01:53:38.734Z,12.89
2016-09-10T01:54:39.133Z,12.81
2016-09-10T01:55:38.713Z,12.85
2016-09-10T01:56:39.201Z,12.95
2016-09-10T01:57:38.803Z,12.81
2016-09-10T01:58:38.745Z,12.81
2016-09-10T01:59:39.007Z,12.84
2016-09-10T02:00:38.698Z,12.89
2016-09-10T02:01:38.863Z,12.84
2016-09-10T02:02:38.810Z,12.82
2016-09-10T02:03:38.757Z,12.82
2016-09-10T02:04:38.844Z,12.71
2016-09-10T02:05:38.845Z,12.81
2016-09-10T02:06:38.727Z,12.71
2016-09-10T02:07:38.764Z,12.79
2016-09-10T02:08:39.113Z,12.74
2016-09-10T02:09:39.902Z,12.81
2016-09-10T02:10:39.098Z,12.71
2016-09-10T02:11:38.785Z,12.82
2016-09-10T02:12:38.827Z,12.69
2016-09-10T02:13:38.887Z,12.75
2016-09-10T02:14:38.816Z,12.74
2016-09-10T02:15:38.705Z,12.74
2016-09-10T02:16:38.742Z,12.81
2016-09-10T02:17:39.618Z,12.67
2016-09-10T02:18:38.823Z,12.75
2016-09-10T02:19:38.770Z,12.77
2016-09-10T02:20:38.795Z,12.75
2016-09-10T02:21:38.768Z,12.79
2016-09-10T02:22:38.736Z,12.64
2016-09-10T02:23:38.900Z,12.7
2016-09-10T02:24:38.814Z,12.75
2016-09-10T02:25:38.725Z,12.67
2016-09-10T02:26:38.839Z,12.71
2016-09-10T02:27:38.704Z,12.59
2016-09-10T02:28:38.714Z,12.66
2016-09-10T02:29:39.176Z,12.6
2016-09-10T02:30:38.725Z,12.7
2016-09-10T02:31:38.738Z,12.64
2016-09-10T02:32:38.759Z,12.66
2016-09-10T02:33:38.803Z,12.62
2016-09-10T02:34:38.862Z,12.71
2016-09-10T02:35:38.709Z,12.67
2016-09-10T02:36:38.828Z,12.63
2016-09-10T02:37:38.754Z,12.62
2016-09-10T02:38:38.773Z,12.66
2016-09-10T02:39:38.721Z,12.6
2016-09-10T02:40:39.276Z,12.62
2016-09-10T02:41:39.129Z,12.62
2016-09-10T02:42:38.820Z,12.7
2016-09-10T02:43:38.839Z,12.79
2016-09-10T02:44:38.728Z,12.63
2016-09-10T02:45:38.784Z,12.66
2016-09-10T02:46:38.863Z,12.62
2016-09-10T02:47:38.813Z,12.63
2016-09-10T02:48:38.716Z,12.74
2016-09-10T02:49:38.818Z,12.59
2016-09-10T02:50:38.786Z,12.67
2016-09-10T02:51:38.799Z,12.49
2016-09-10T02:52:38.756Z,12.57
2016-09-10T02:53:39.267Z,12.63
2016-09-10T02:54:38.758Z,12.46
2016-09-10T02:55:38.946Z,12.78
2016-09-10T02:56:38.774Z,12.71
2016-09-10T02:57:38.818Z,12.49
2016-09-10T02:58:38.726Z,12.49
2016-09-10T02:59:38.951Z,12.6
2016-09-10T03:00:38.784Z,12.7
2016-09-10T03:01:38.831Z,12.67
2016-09-10T03:02:38.724Z,12.51
2016-09-10T03:03:38.774Z,12.57
2016-09-10T03:04:38.746Z,12.57
2016-09-10T03:05:38.999Z,12.57
2016-09-10T03:06:38.789Z,12.7
2016-09-10T03:07:39.046Z,12.67
2016-09-10T03:08:38.832Z,12.63
2016-09-10T03:09:38.767Z,12.62
2016-09-10T03:10:38.753Z,12.56
2016-09-10T03:11:39.897Z,12.57
2016-09-10T03:12:38.751Z,12.59
2016-09-10T03:13:39.008Z,12.56
2016-09-10T03:14:38.752Z,12.56
2016-09-10T03:15:38.849Z,12.6
2016-09-10T03:16:38.939Z,12.52
2016-09-10T03:17:39.301Z,12.54
2016-09-10T03:18:39.252Z,12.59
2016-09-10T03:19:39.666Z,12.63
2016-09-10T03:20:39.402Z,12.57
2016-09-10T03:21:39.677Z,12.54
2016-09-10T03:22:39.308Z,12.51
2016-09-10T03:23:38.804Z,12.59
2016-09-10T03:24:39.406Z,12.62
2016-09-10T03:25:38.814Z,12.54
2016-09-10T03:26:39.024Z,12.49
2016-09-10T03:27:38.768Z,12.42
2016-09-10T03:28:38.794Z,12.49
2016-09-10T03:29:38.809Z,12.49
2016-09-10T03:30:38.925Z,12.44
2016-09-10T03:31:38.842Z,12.41
2016-09-10T03:32:38.954Z,12.33
2016-09-10T03:33:39.727Z,12.48
2016-09-10T03:34:38.865Z,12.42
2016-09-10T03:35:38.875Z,12.44
2016-09-10T03:36:38.882Z,12.46
2016-09-10T03:37:38.869Z,12.54
2016-09-10T03:38:38.790Z,12.48
2016-09-10T03:39:38.845Z,12.33
2016-09-10T03:40:38.820Z,12.37
2016-09-10T03:41:38.866Z,12.29
2016-09-10T03:42:38.789Z,12.34
2016-09-10T03:43:38.814Z,12.37
2016-09-10T03:44:38.810Z,12.38
2016-09-10T03:45:38.804Z,12.37
2016-09-10T03:46:38.914Z,12.39
2016-09-10T03:47:39.841Z,12.42
2016-09-10T03:48:38.846Z,12.38
2016-09-10T03:49:38.784Z,12.44
2016-09-10T03:50:39.034Z,12.33
2016-09-10T03:51:38.842Z,12.46
2016-09-10T03:52:39.225Z,12.34
2016-09-10T03:53:38.876Z,12.51
2016-09-10T03:54:38.852Z,12.42
2016-09-10T03:55:38.835Z,12.46
2016-09-10T03:56:38.970Z,12.38
2016-09-10T03:57:38.945Z,12.41
2016-09-10T03:58:38.956Z,12.38
2016-09-10T03:59:38.893Z,12.41
2016-09-10T04:00:38.868Z,12.46
2016-09-10T04:01:38.804Z,12.38
2016-09-10T04:02:39.091Z,12.42
2016-09-10T04:03:39.024Z,12.51
2016-09-10T04:04:38.850Z,12.56
2016-09-10T04:05:38.917Z,12.49
2016-09-10T04:06:38.901Z,12.44
2016-09-10T04:07:38.809Z,12.45
2016-09-10T04:08:38.879Z,12.48
2016-09-10T04:09:38.893Z,12.44
2016-09-10T04:10:38.829Z,12.59
2016-09-10T04:11:38.883Z,12.64
2016-09-10T04:12:38.842Z,12.57
2016-09-10T04:13:38.881Z,12.49
2016-09-10T04:14:38.920Z,12.62
2016-09-10T04:15:38.850Z,12.62
2016-09-10T04:16:38.977Z,12.6
2016-09-10T04:17:38.957Z,12.57
2016-09-10T04:18:39.010Z,12.59
2016-09-10T04:19:38.875Z,12.62
2016-09-10T04:20:38.949Z,12.62
2016-09-10T04:21:39.072Z,12.57
2016-09-10T04:22:38.849Z,12.56
2016-09-10T04:23:39.166Z,12.48
2016-09-10T04:24:38.842Z,12.56
2016-09-10T04:25:39.082Z,12.64
2016-09-10T04:26:38.872Z,12.62
2016-09-10T04:27:39.025Z,12.59
2016-09-10T04:28:38.884Z,12.63
2016-09-10T04:29:38.834Z,12.46
2016-09-10T04:30:39.392Z,12.63
2016-09-10T04:31:39.227Z,12.63
2016-09-10T04:32:39.169Z,12.57
2016-09-10T04:33:39.054Z,12.45
2016-09-10T04:34:38.875Z,12.56
2016-09-10T04:35:39.016Z,12.51
2016-09-10T04:36:38.906Z,12.45
2016-09-10T04:37:38.855Z,12.41
2016-09-10T04:38:38.945Z,12.46
2016-09-10T04:39:38.957Z,12.48
2016-09-10T04:40:38.941Z,12.37
2016-09-10T04:41:39.179Z,12.41
2016-09-10T04:42:38.880Z,12.45
2016-09-10T04:43:38.842Z,12.48
2016-09-10T04:44:38.836Z,12.3
2016-09-10T04:45:38.999Z,12.34
2016-09-10T04:46:38.970Z,12.45
2016-09-10T04:47:39.322Z,12.45
2016-09-10T04:48:39.362Z,12.24
2016-09-10T04:49:39.047Z,12.41
2016-09-10T04:50:39.033Z,12.48
2016-09-10T04:51:38.884Z,12.51
2016-09-10T04:52:38.889Z,12.39
2016-09-10T04:53:38.945Z,12.44
2016-09-10T04:54:39.521Z,12.34
2016-09-10T04:55:38.905Z,12.44
2016-09-10T04:56:39.006Z,12.41
2016-09-10T04:57:39.100Z,12.29
2016-09-10T04:58:38.863Z,12.37
2016-09-10T04:59:39.275Z,12.39
2016-09-10T05:00:39.095Z,12.34
2016-09-10T05:01:38.853Z,12.42
2016-09-10T05:02:39.007Z,12.42
2016-09-10T05:03:38.919Z,12.34
2016-09-10T05:04:38.886Z,12.33
2016-09-10T05:05:38.879Z,12.31
2016-09-10T05:06:39.455Z,12.31
2016-09-10T05:07:38.834Z,12.31
2016-09-10T05:08:39.041Z,12.33
2016-09-10T05:09:38.964Z,12.38
2016-09-10T05:10:38.857Z,12.34
2016-09-10T05:11:38.899Z,12.46
2016-09-10T05:12:38.975Z,12.37
2016-09-10T05:13:38.858Z,12.37
2016-09-10T05:14:38.945Z,12.38
2016-09-10T05:15:38.850Z,12.42
2016-09-10T05:16:38.965Z,12.52
2016-09-10T05:17:41.022Z,12.45
2016-09-10T05:18:39.010Z,12.45
2016-09-10T05:19:39.673Z,12.46
2016-09-10T05:20:39.645Z,12.42
2016-09-10T05:21:39.735Z,12.57
2016-09-10T05:22:39.224Z,12.57
2016-09-10T05:23:39.935Z,12.62
2016-09-10T05:24:38.884Z,12.69
2016-09-10T05:25:38.933Z,12.64
2016-09-10T05:26:38.895Z,12.66
2016-09-10T05:27:38.937Z,12.7
2016-09-10T05:28:38.948Z,12.64
2016-09-10T05:29:38.960Z,12.64
2016-09-10T05:30:39.089Z,12.71
2016-09-10T05:31:38.987Z,12.77
2016-09-10T05:32:39.010Z,12.74
2016-09-10T05:33:39.354Z,12.64
2016-09-10T05:34:38.956Z,12.75
2016-09-10T05:35:39.175Z,12.77
2016-09-10T05:36:39.067Z,12.66
2016-09-10T05:37:38.926Z,12.78
2016-09-10T05:38:39.122Z,12.92
2016-09-10T05:39:39.054Z,12.84
2016-09-10T05:40:39.138Z,12.81
2016-09-10T05:41:39.289Z,12.84
2016-09-10T05:42:40.527Z,12.96
2016-09-10T05:43:39.466Z,12.96
2016-09-10T05:44:39.379Z,12.87
2016-09-10T05:45:38.882Z,12.92
2016-09-10T05:46:38.873Z,13
2016-09-10T05:47:38.959Z,13.12
2016-09-10T05:48:39.049Z,13.18
2016-09-10T05:49:38.966Z,13.09
2016-09-10T05:50:38.886Z,13.14
2016-09-10T05:51:38.934Z,13.18
2016-09-10T05:52:38.916Z,13.21
2016-09-10T05:53:39.168Z,13.27
2016-09-10T05:54:38.953Z,13.32
2016-09-10T05:55:39.134Z,13.37
2016-09-10T05:56:39.243Z,13.33
2016-09-10T05:57:39.322Z,13.38
2016-09-10T05:58:39.111Z,13.36
2016-09-10T05:59:38.944Z,13.41
2016-09-10T06:00:38.973Z,13.36
2016-09-10T06:01:39.071Z,13.43
2016-09-10T06:02:38.934Z,13.44
2016-09-10T06:03:38.966Z,13.56
2016-09-10T06:04:39.505Z,13.54
2016-09-10T06:05:39.072Z,13.65
2016-09-10T06:06:38.931Z,13.73
2016-09-10T06:07:38.972Z,13.67
2016-09-10T06:08:38.949Z,13.76
2016-09-10T06:09:39.331Z,13.74
2016-09-10T06:10:39.176Z,13.81
2016-09-10T06:11:38.987Z,13.87
2016-09-10T06:12:38.997Z,13.88
2016-09-10T06:13:39.274Z,13.98
2016-09-10T06:14:39.034Z,13.98
2016-09-10T06:15:38.993Z,13.98
2016-09-10T06:16:38.966Z,14.06
2016-09-10T06:17:39.344Z,14.13
2016-09-10T06:18:38.931Z,14.24
2016-09-10T06:19:39.785Z,14.31
2016-09-10T06:20:39.414Z,14.44
2016-09-10T06:21:39.191Z,14.44
2016-09-10T06:22:38.920Z,14.35
2016-09-10T06:23:39.446Z,14.44
2016-09-10T06:24:39.422Z,14.54
2016-09-10T06:25:38.935Z,14.56
2016-09-10T06:26:38.922Z,14.67
2016-09-10T06:27:38.947Z,14.72
2016-09-10T06:28:39.236Z,14.68
2016-09-10T06:29:39.001Z,14.84
2016-09-10T06:30:39.001Z,14.83
2016-09-10T06:31:38.934Z,14.93
2016-09-10T06:32:39.190Z,14.9
2016-09-10T06:33:38.990Z,15.02
2016-09-10T06:34:38.961Z,14.93
2016-09-10T06:35:38.989Z,15.13
2016-09-10T06:36:38.960Z,15.13
2016-09-10T06:37:38.980Z,15.12
2016-09-10T06:38:38.984Z,15.26
2016-09-10T06:39:39.317Z,15.3
2016-09-10T06:40:38.941Z,15.42
2016-09-10T06:41:39.052Z,15.42
2016-09-10T06:42:39.004Z,15.42
2016-09-10T06:43:38.961Z,15.51
2016-09-10T06:44:39.155Z,15.59
2016-09-10T06:45:38.979Z,15.51
2016-09-10T06:46:39.175Z,15.63
2016-09-10T06:47:39.127Z,15.76
2016-09-10T06:48:38.915Z,15.68
2016-09-10T06:49:39.169Z,15.85
2016-09-10T06:50:38.945Z,15.94
2016-09-10T06:51:38.925Z,15.86
2016-09-10T06:52:39.042Z,15.92
2016-09-10T06:53:39.123Z,16.07
2016-09-10T06:54:38.988Z,16.07
2016-09-10T06:55:38.982Z,16.01
2016-09-10T06:56:39.052Z,16.14
2016-09-10T06:57:39.224Z,16.16
2016-09-10T06:58:38.950Z,16.34
2016-09-10T06:59:39.222Z,16.34
2016-09-10T07:00:38.997Z,16.4
2016-09-10T07:01:39.026Z,16.41
2016-09-10T07:02:38.998Z,16.52
2016-09-10T07:03:39.179Z,16.63
2016-09-10T07:04:39.076Z,16.68
2016-09-10T07:05:39.177Z,16.59
2016-09-10T07:06:39.016Z,16.71
2016-09-10T07:07:39.220Z,16.83
2016-09-10T07:08:39.331Z,16.8
2016-09-10T07:09:39.019Z,16.98
2016-09-10T07:10:39.039Z,16.92
2016-09-10T07:11:39.015Z,16.88
2016-09-10T07:12:39.009Z,17
2016-09-10T07:13:39.042Z,17.13
2016-09-10T07:14:39.266Z,17.13
2016-09-10T07:15:38.974Z,17.04
2016-09-10T07:16:39.221Z,17.08
2016-09-10T07:17:39.079Z,17.17
2016-09-10T07:18:39.299Z,17.33
2016-09-10T07:19:38.980Z,17.36
2016-09-10T07:20:39.174Z,17.35
2016-09-10T07:21:39.735Z,17.41
2016-09-10T07:22:39.149Z,17.43
2016-09-10T07:23:39.316Z,17.51
2016-09-10T07:24:39.222Z,17.47
2016-09-10T07:25:39.037Z,17.59
2016-09-10T07:26:39.295Z,17.66
2016-09-10T07:27:39.235Z,17.73
2016-09-10T07:28:40.340Z,17.71
2016-09-10T07:29:39.050Z,17.76
2016-09-10T07:30:39.088Z,17.84
2016-09-10T07:31:39.713Z,17.89
2016-09-10T07:32:39.332Z,17.89
2016-09-10T07:33:39.040Z,17.97
2016-09-10T07:34:38.971Z,17.88
2016-09-10T07:35:39.134Z,18.03
2016-09-10T07:36:39.013Z,18.18
2016-09-10T07:37:39.078Z,18.17
2016-09-10T07:38:39.034Z,18.17
2016-09-10T07:39:39.298Z,18.39
2016-09-10T07:40:39.005Z,18.4
2016-09-10T07:41:39.204Z,18.43
2016-09-10T07:42:39.738Z,18.4
2016-09-10T07:43:39.909Z,18.54
2016-09-10T07:44:39.578Z,18.67
2016-09-10T07:45:39.508Z,18.64
2016-09-10T07:46:39.795Z,18.55
2016-09-10T07:47:39.515Z,18.65
2016-09-10T07:48:39.488Z,18.72
2016-09-10T07:49:39.059Z,18.68
2016-09-10T07:50:39.258Z,18.76
2016-09-10T07:51:39.016Z,18.82
2016-09-10T07:52:39.296Z,18.8
2016-09-10T07:53:39.615Z,18.95
2016-09-10T07:54:39.033Z,18.94
2016-09-10T07:55:39.063Z,19.17
2016-09-10T07:56:39.269Z,19.08
2016-09-10T07:57:40.016Z,19.17
2016-09-10T07:58:39.226Z,19.21
2016-09-10T07:59:39.065Z,19.33
2016-09-10T08:00:39.231Z,19.31
2016-09-10T08:01:39.052Z,19.42
2016-09-10T08:02:39.523Z,19.43
2016-09-10T08:03:39.390Z,19.51
2016-09-10T08:04:39.041Z,19.5
2016-09-10T08:05:39.007Z,19.58
2016-09-10T08:06:39.073Z,19.63
2016-09-10T08:07:39.342Z,19.65
2016-09-10T08:08:39.414Z,19.73
2016-09-10T08:10:07.263Z,19.86
2016-09-10T08:10:39.747Z,19.76
2016-09-10T08:12:12.614Z,19.83
2016-09-10T08:12:39.687Z,19.88
2016-09-10T08:13:50.493Z,19.93
2016-09-10T08:14:39.241Z,20.05
2016-09-10T08:15:40.281Z,20.02
2016-09-10T08:16:39.030Z,20.15
2016-09-10T08:17:39.469Z,20.12
2016-09-10T08:18:39.100Z,20.09
2016-09-10T08:19:39.275Z,20.27
2016-09-10T08:20:39.085Z,20.27
2016-09-10T08:21:39.418Z,20.38
2016-09-10T08:22:39.329Z,20.41
2016-09-10T08:23:39.226Z,20.33
2016-09-10T08:24:39.088Z,20.5
2016-09-10T08:25:39.064Z,20.49
2016-09-10T08:26:39.250Z,20.51
2016-09-10T08:27:39.210Z,20.53
2016-09-10T08:28:39.513Z,20.65
2016-09-10T08:29:39.242Z,20.72
2016-09-10T08:30:39.132Z,20.79
2016-09-10T08:31:39.513Z,20.68
2016-09-10T08:32:39.154Z,20.74
2016-09-10T08:33:39.074Z,20.76
2016-09-10T08:34:39.165Z,20.8
2016-09-10T08:35:39.489Z,20.76
2016-09-10T08:36:39.481Z,20.87
2016-09-10T08:37:39.039Z,20.95
2016-09-10T08:38:39.245Z,20.99
2016-09-10T08:39:39.057Z,21.02
2016-09-10T08:40:39.311Z,21.09
2016-09-10T08:41:39.717Z,21.08
2016-09-10T08:42:39.162Z,21.09
2016-09-10T08:43:39.053Z,21.24
2016-09-10T08:44:39.205Z,21.27
2016-09-10T08:45:39.692Z,21.21
2016-09-10T08:46:39.163Z,21.27
2016-09-10T08:47:39.119Z,21.3
2016-09-10T08:48:39.481Z,21.51
2016-09-10T08:49:39.125Z,21.54
2016-09-10T08:50:39.987Z,21.61
2016-09-10T08:51:39.135Z,21.61
2016-09-10T08:52:39.503Z,21.64
2016-09-10T08:53:39.165Z,21.75
2016-09-10T08:55:14.247Z,21.75
2016-09-10T08:56:21.155Z,21.81
2016-09-10T08:56:55.105Z,21.91
2016-09-10T08:57:45.232Z,21.79
2016-09-10T08:58:45.026Z,21.87
2016-09-10T09:00:24.057Z,21.91
2016-09-10T09:01:48.817Z,21.85
2016-09-10T09:03:14.937Z,21.99
2016-09-10T09:04:40.000Z,22.12
2016-09-10T09:06:04.762Z,22.16
2016-09-10T09:07:27.976Z,22.19
2016-09-10T09:08:48.324Z,22.19
2016-09-10T09:09:50.026Z,22.25
2016-09-10T09:10:36.221Z,22.29
2016-09-10T09:12:06.160Z,22.35
2016-09-10T09:12:59.824Z,22.37
2016-09-10T09:13:55.688Z,22.39
2016-09-10T09:14:37.199Z,22.43
2016-09-10T09:15:36.983Z,22.54
2016-09-10T09:16:37.020Z,22.52
2016-09-10T09:17:38.712Z,22.59
2016-09-10T09:18:37.573Z,22.6
2016-09-10T09:19:37.135Z,22.6
2016-09-10T09:20:37.039Z,22.72
2016-09-10T09:21:37.271Z,22.62
2016-09-10T09:22:36.992Z,22.71
2016-09-10T09:23:37.127Z,22.8
2016-09-10T09:24:37.104Z,22.86
2016-09-10T09:25:37.340Z,22.82
2016-09-10T09:26:37.190Z,22.89
2016-09-10T09:27:37.408Z,22.9
2016-09-10T09:28:37.005Z,23.01
2016-09-10T09:29:37.178Z,22.9
2016-09-10T09:30:37.082Z,23.09
2016-09-10T09:31:36.971Z,23.01
2016-09-10T09:32:37.114Z,23.08
2016-09-10T09:33:37.039Z,23.07
2016-09-10T09:34:37.255Z,23.15
2016-09-10T09:35:37.028Z,23.11
2016-09-10T09:36:37.011Z,23.17
2016-09-10T09:37:37.056Z,23.22
2016-09-10T09:38:37.157Z,23.24
2016-09-10T09:39:37.062Z,23.26
2016-09-10T09:40:37.155Z,23.29
2016-09-10T09:41:36.986Z,23.27
2016-09-10T09:42:37.006Z,23.45
2016-09-10T09:43:37.592Z,23.45
2016-09-10T09:44:37.170Z,23.42
2016-09-10T09:45:37.218Z,23.49
2016-09-10T09:46:37.151Z,23.49
2016-09-10T09:47:37.437Z,23.55
2016-09-10T09:48:37.301Z,23.58
2016-09-10T09:49:37.055Z,23.5
2016-09-10T09:50:37.035Z,23.72
2016-09-10T09:51:36.980Z,23.62
2016-09-10T09:52:37.009Z,23.67
2016-09-10T09:53:37.163Z,23.76
2016-09-10T09:54:37.109Z,23.77
2016-09-10T09:55:37.005Z,23.68
2016-09-10T09:56:36.970Z,23.77
2016-09-10T09:57:37.044Z,23.8
2016-09-10T09:58:37.001Z,23.94
2016-09-10T09:59:36.946Z,23.9
2016-09-10T10:00:37.735Z,23.87
2016-09-10T10:01:37.070Z,24.04
2016-09-10T10:02:37.230Z,23.95
2016-09-10T10:03:37.204Z,24.12
2016-09-10T10:04:36.967Z,24.1
2016-09-10T10:05:37.062Z,24.02
2016-09-10T10:06:37.189Z,24.08
2016-09-10T10:07:37.066Z,24.02
2016-09-10T10:08:37.003Z,23.98
2016-09-10T10:09:37.054Z,24.14
2016-09-10T10:10:37.486Z,24.22
2016-09-10T10:11:37.010Z,24.22
2016-09-10T10:12:37.402Z,24.16
2016-09-10T10:13:37.414Z,24.35
2016-09-10T10:14:37.870Z,24.23
2016-09-10T10:15:37.437Z,24.2
2016-09-10T10:16:37.082Z,24.27
2016-09-10T10:17:37.300Z,24.41
2016-09-10T10:18:37.126Z,24.42
2016-09-10T10:19:37.012Z,24.41
2016-09-10T10:20:37.021Z,24.52
2016-09-10T10:21:37.054Z,24.45
2016-09-10T10:22:37.070Z,24.54
2016-09-10T10:23:37.077Z,24.53
2016-09-10T10:24:39.558Z,24.49
2016-09-10T10:25:37.053Z,24.63
2016-09-10T10:26:37.407Z,24.57
2016-09-10T10:27:37.278Z,24.9
2016-09-10T10:28:37.084Z,24.71
2016-09-10T10:29:37.299Z,24.68
2016-09-10T10:30:37.310Z,24.71
2016-09-10T10:31:37.269Z,24.9
2016-09-10T10:32:37.041Z,24.83
2016-09-10T10:33:37.020Z,24.9
2016-09-10T10:34:37.025Z,24.73
2016-09-10T10:35:37.524Z,24.85
2016-09-10T10:36:37.170Z,24.85
2016-09-10T10:37:36.994Z,25.07
2016-09-10T10:38:37.033Z,24.92
2016-09-10T10:39:37.108Z,24.97
2016-09-10T10:40:37.017Z,25.06
2016-09-10T10:41:37.054Z,24.91
2016-09-10T10:42:37.213Z,25.06
2016-09-10T10:43:37.037Z,25.01
2016-09-10T10:44:37.050Z,25.02
2016-09-10T10:45:37.075Z,25.1
2016-09-10T10:46:37.099Z,25.05
2016-09-10T10:47:37.058Z,25.27
2016-09-10T10:48:37.057Z,25.27
2016-09-10T10:49:37.129Z,25.2
2016-09-10T10:50:37.094Z,25.27
2016-09-10T10:51:37.058Z,25.3
2016-09-10T10:52:37.036Z,25.42
2016-09-10T10:53:37.015Z,25.39
2016-09-10T10:54:37.263Z,25.37
2016-09-10T10:55:37.248Z,25.38
2016-09-10T10:56:37.003Z,25.31
2016-09-10T10:57:37.044Z,25.44
2016-09-10T10:58:37.080Z,25.42
2016-09-10T10:59:37.005Z,25.39
2016-09-10T11:00:37.166Z,25.5
2016-09-10T11:01:37.044Z,25.59
2016-09-10T11:02:37.083Z,25.56
2016-09-10T11:03:37.366Z,25.44
2016-09-10T11:04:37.040Z,25.47
2016-09-10T11:05:37.161Z,25.59
2016-09-10T11:06:37.328Z,25.54
2016-09-10T11:07:37.103Z,25.47
2016-09-10T11:08:37.153Z,25.61
2016-09-10T11:09:37.182Z,25.54
2016-09-10T11:10:37.539Z,25.57
2016-09-10T11:11:37.058Z,25.65
2016-09-10T11:12:37.046Z,25.61
2016-09-10T11:13:37.375Z,25.57
2016-09-10T11:14:37.094Z,25.65
2016-09-10T11:15:37.128Z,25.67
2016-09-10T11:16:37.201Z,25.61
2016-09-10T11:17:37.138Z,25.71
2016-09-10T11:18:37.090Z,25.74
2016-09-10T11:19:37.073Z,25.74
2016-09-10T11:20:37.432Z,25.71
2016-09-10T11:21:37.100Z,25.79
2016-09-10T11:22:37.135Z,25.86
2016-09-10T11:23:37.153Z,25.74
2016-09-10T11:24:37.220Z,25.79
2016-09-10T11:25:37.040Z,25.89
2016-09-10T11:26:37.095Z,25.74
2016-09-10T11:27:37.140Z,25.82
2016-09-10T11:28:37.354Z,25.9
2016-09-10T11:29:38.211Z,25.91
2016-09-10T11:30:37.081Z,25.97
2016-09-10T11:31:37.492Z,25.89
2016-09-10T11:32:37.352Z,25.91
2016-09-10T11:33:37.941Z,25.91
2016-09-10T11:34:37.333Z,26.01
2016-09-10T11:35:37.196Z,25.87
2016-09-10T11:36:37.161Z,26.05
2016-09-10T11:37:37.509Z,25.98
2016-09-10T11:38:38.695Z,25.99
2016-09-10T11:39:37.105Z,26.08
2016-09-10T11:40:37.351Z,26.01
2016-09-10T11:41:37.247Z,26.18
2016-09-10T11:42:37.134Z,26.21
2016-09-10T11:43:37.152Z,26.11
2016-09-10T11:44:37.139Z,26.12
2016-09-10T11:45:37.139Z,26.11
2016-09-10T11:46:37.152Z,26.08
2016-09-10T11:47:37.282Z,26.15
2016-09-10T11:48:37.082Z,26.22
2016-09-10T11:49:37.101Z,26.09
2016-09-10T11:50:37.096Z,26.15
2016-09-10T11:51:37.154Z,26.09
2016-09-10T11:52:37.089Z,26.18
2016-09-10T11:53:37.200Z,26.22
2016-09-10T11:54:37.089Z,26.24
2016-09-10T11:55:37.203Z,26.27
2016-09-10T11:56:37.425Z,26.27
2016-09-10T11:57:37.486Z,26.28
2016-09-10T11:58:37.119Z,26.37
2016-09-10T11:59:37.146Z,26.37
2016-09-10T12:00:37.088Z,26.4
2016-09-10T12:01:37.106Z,26.54
2016-09-10T12:02:37.644Z,26.46
2016-09-10T12:03:37.211Z,26.44
2016-09-10T12:04:37.779Z,26.49
2016-09-10T12:05:37.208Z,26.43
2016-09-10T12:06:37.139Z,26.55
2016-09-10T12:07:37.076Z,26.73
2016-09-10T12:08:37.232Z,26.5
2016-09-10T12:09:37.170Z,26.59
2016-09-10T12:10:37.119Z,26.58
2016-09-10T12:11:37.124Z,26.76
2016-09-10T12:12:37.097Z,26.73
2016-09-10T12:13:37.200Z,26.73
2016-09-10T12:14:37.135Z,26.64
2016-09-10T12:15:37.151Z,26.62
2016-09-10T12:16:39.228Z,26.79
2016-09-10T12:17:37.109Z,26.83
2016-09-10T12:18:37.438Z,26.79
2016-09-10T12:19:37.916Z,26.74
2016-09-10T12:20:37.172Z,26.74
2016-09-10T12:21:37.197Z,26.86
2016-09-10T12:22:37.181Z,26.74
2016-09-10T12:23:37.208Z,26.86
2016-09-10T12:24:37.170Z,26.94
2016-09-10T12:25:37.218Z,26.92
2016-09-10T12:26:38.197Z,26.84
2016-09-10T12:27:37.714Z,26.83
2016-09-10T12:28:37.161Z,26.8
2016-09-10T12:29:37.212Z,26.83
2016-09-10T12:30:37.351Z,26.83
2016-09-10T12:31:37.870Z,26.94
2016-09-10T12:32:37.142Z,26.89
2016-09-10T12:33:38.370Z,26.89
2016-09-10T12:34:37.446Z,27.02
2016-09-10T12:35:37.148Z,26.99
2016-09-10T12:36:37.204Z,27.04
2016-09-10T12:37:37.099Z,26.91
2016-09-10T12:38:37.153Z,27.05
2016-09-10T12:39:37.107Z,27.05
2016-09-10T12:40:38.837Z,27.09
2016-09-10T12:41:37.423Z,27.04
2016-09-10T12:42:37.328Z,27.05
2016-09-10T12:43:37.177Z,27.05
2016-09-10T12:44:37.256Z,27.1
2016-09-10T12:45:37.562Z,27.04
2016-09-10T12:46:38.077Z,27.09
2016-09-10T12:47:37.519Z,27.13
2016-09-10T12:48:37.345Z,27.2
2016-09-10T12:49:37.183Z,27.19
2016-09-10T12:50:37.229Z,27.13
2016-09-10T12:51:37.190Z,27.19
2016-09-10T12:52:37.241Z,27.1
2016-09-10T12:53:37.183Z,27.16
2016-09-10T12:54:37.216Z,27.19
2016-09-10T12:55:37.239Z,27.19
2016-09-10T12:56:37.152Z,27.24
2016-09-10T12:57:37.137Z,27.28
2016-09-10T12:58:37.176Z,27.32